Morrisville, Missouri
Current Conditions -  °F | °C
As of 6:52 AM on Saturday 20 Dec 2014 (Local Time) from KSGF Reporting Station
Moderate Fog Moderate Fog  
Wind Chill: 33°   Ceiling: 200
Heat Index: 37°   Visibility: 0.25mi
Dew Point: 36°   Wind: 5mph
Humidity: 96%   Direction: 170°S
Pressure: 30.21"   Gusts: NA
Location:  37.48°N, 93.43°W
Report Text: KSGF 201252Z 17004KT 1/4SM FG VV002 03/02 A3021 RMK AO2 SLP237 T00280022
Loading
Personal Weather Stations






























Interactive Weather Map New forecast layout! Learn more

10-Day Weather Forecast

Advertisements
Track Severe Weather on mobile